createdAt,value
2019-03-05T00:00:48.299Z,83
2019-03-05T00:01:50.480Z,83
2019-03-05T00:02:52.596Z,84
2019-03-05T00:03:54.718Z,85
2019-03-05T00:04:56.847Z,84
2019-03-05T00:05:58.994Z,84
2019-03-05T00:07:01.115Z,84
2019-03-05T00:08:03.239Z,84
2019-03-05T00:09:05.363Z,84
2019-03-05T00:10:07.769Z,85
2019-03-05T00:11:09.886Z,85
2019-03-05T00:12:12.019Z,85
2019-03-05T00:13:14.131Z,85
2019-03-05T00:14:19.467Z,85
2019-03-05T00:15:21.606Z,85
2019-03-05T00:16:23.714Z,85
2019-03-05T00:17:26.237Z,86
2019-03-05T00:18:28.371Z,85
2019-03-05T00:19:30.802Z,85
2019-03-05T00:20:33.199Z,85
2019-03-05T00:21:35.363Z,85
2019-03-05T00:22:37.488Z,85
2019-03-05T00:23:39.889Z,86
2019-03-05T00:24:42.016Z,86
2019-03-05T00:25:44.800Z,86
2019-03-05T00:26:46.922Z,86
2019-03-05T00:27:49.041Z,86
2019-03-05T00:28:51.146Z,86
2019-03-05T00:29:53.299Z,86
2019-03-05T00:30:55.407Z,86
2019-03-05T00:31:57.626Z,87
2019-03-05T00:32:59.753Z,86
2019-03-05T00:34:02.424Z,87
2019-03-05T00:35:04.584Z,86
2019-03-05T00:36:06.707Z,86
2019-03-05T00:37:08.819Z,87
2019-03-05T00:38:11.333Z,87
2019-03-05T00:39:13.484Z,87
2019-03-05T00:40:15.594Z,87
2019-03-05T00:41:17.729Z,87
2019-03-05T00:42:20.261Z,87
2019-03-05T00:43:22.760Z,87
2019-03-05T00:44:24.943Z,87
2019-03-05T00:45:27.358Z,87
2019-03-05T00:46:29.465Z,88
2019-03-05T00:47:31.599Z,88
2019-03-05T00:48:33.737Z,88
2019-03-05T00:49:35.848Z,88
2019-03-05T00:50:38.365Z,88
2019-03-05T00:51:40.471Z,89
2019-03-05T00:52:42.599Z,89
2019-03-05T00:53:44.707Z,89
2019-03-05T00:54:47.118Z,89
2019-03-05T00:55:50.924Z,89
2019-03-05T00:56:53.159Z,89
2019-03-05T00:57:55.690Z,89
2019-03-05T00:58:57.800Z,89
2019-03-05T01:00:00.427Z,89
2019-03-05T01:01:02.617Z,89
2019-03-05T01:02:05.063Z,89
2019-03-05T01:03:07.177Z,89
2019-03-05T01:04:09.602Z,89
2019-03-05T01:05:11.712Z,89
2019-03-05T01:06:13.828Z,89
2019-03-05T01:07:15.952Z,89
2019-03-05T01:08:20.921Z,89
2019-03-05T01:09:23.048Z,89
2019-03-05T01:10:25.183Z,89
2019-03-05T01:11:27.692Z,89
2019-03-05T01:12:30.203Z,89
2019-03-05T01:13:32.396Z,89
2019-03-05T01:14:34.511Z,89
2019-03-05T01:15:36.906Z,90
2019-03-05T01:16:39.325Z,89
2019-03-05T01:17:41.438Z,90
2019-03-05T01:18:43.541Z,90
2019-03-05T01:19:45.670Z,90
2019-03-05T01:20:47.777Z,90
2019-03-05T01:21:49.888Z,89
2019-03-05T01:22:52.026Z,90
2019-03-05T01:23:54.128Z,89
2019-03-05T01:24:56.243Z,90
2019-03-05T01:25:58.757Z,90
2019-03-05T01:27:00.881Z,90
2019-03-05T01:28:02.986Z,90
2019-03-05T01:29:05.173Z,90
2019-03-05T01:30:07.283Z,90
2019-03-05T01:31:09.384Z,90
2019-03-05T01:32:11.808Z,90
2019-03-05T01:33:13.968Z,90
2019-03-05T01:34:16.091Z,90
2019-03-05T01:35:18.211Z,90
2019-03-05T01:36:20.394Z,90
2019-03-05T01:37:22.508Z,90
2019-03-05T01:38:24.639Z,89
2019-03-05T01:39:27.046Z,90
2019-03-05T01:40:29.424Z,90
2019-03-05T01:41:31.549Z,90
2019-03-05T01:42:33.738Z,90
2019-03-05T01:43:35.857Z,90
2019-03-05T01:44:38.037Z,90
2019-03-05T01:45:40.159Z,90
2019-03-05T01:46:42.310Z,89
2019-03-05T01:47:44.411Z,90
2019-03-05T01:48:46.528Z,90
2019-03-05T01:49:48.660Z,90
2019-03-05T01:50:50.779Z,90
2019-03-05T01:51:52.967Z,90
2019-03-05T01:52:55.103Z,90
2019-03-05T01:53:57.210Z,90
2019-03-05T01:54:59.316Z,90
2019-03-05T01:56:01.998Z,90
2019-03-05T01:57:04.672Z,90
2019-03-05T01:58:07.100Z,90
2019-03-05T01:59:09.513Z,90
2019-03-05T02:00:12.851Z,90
2019-03-05T02:01:14.956Z,90
2019-03-05T02:02:17.080Z,90
2019-03-05T02:03:19.304Z,90
2019-03-05T02:04:21.402Z,90
2019-03-05T02:05:23.608Z,90
2019-03-05T02:06:25.723Z,90
2019-03-05T02:07:27.845Z,90
2019-03-05T02:08:29.968Z,91
2019-03-05T02:09:32.110Z,91
2019-03-05T02:10:34.608Z,90
2019-03-05T02:11:36.728Z,90
2019-03-05T02:12:38.842Z,90
2019-03-05T02:13:40.941Z,90
2019-03-05T02:14:43.344Z,90
2019-03-05T02:15:45.470Z,90
2019-03-05T02:16:47.862Z,90
2019-03-05T02:17:50.367Z,90
2019-03-05T02:18:52.489Z,90
2019-03-05T02:19:54.603Z,90
2019-03-05T02:20:56.736Z,91
2019-03-05T02:21:58.842Z,91
2019-03-05T02:23:00.953Z,90
2019-03-05T02:24:03.409Z,90
2019-03-05T02:25:05.636Z,90
2019-03-05T02:26:07.729Z,90
2019-03-05T02:27:09.847Z,90
2019-03-05T02:28:12.253Z,91
2019-03-05T02:29:14.357Z,91
2019-03-05T02:30:17.176Z,92
2019-03-05T02:31:20.013Z,91
2019-03-05T02:32:22.431Z,91
2019-03-05T02:33:24.559Z,91
2019-03-05T02:34:26.741Z,90
2019-03-05T02:35:29.171Z,90
2019-03-05T02:36:31.693Z,90
2019-03-05T02:37:33.845Z,91
2019-03-05T02:38:35.996Z,90
2019-03-05T02:39:38.444Z,90
2019-03-05T02:40:40.972Z,91
2019-03-05T02:41:43.119Z,90
2019-03-05T02:42:45.243Z,90
2019-03-05T02:43:47.404Z,90
2019-03-05T02:44:50.398Z,90
2019-03-05T02:45:52.545Z,90
2019-03-05T02:46:54.687Z,90
2019-03-05T02:47:56.810Z,90
2019-03-05T02:48:59.497Z,90
2019-03-05T02:50:02.056Z,90
2019-03-05T02:51:05.075Z,91
2019-03-05T02:52:07.485Z,90
2019-03-05T02:53:09.902Z,90
2019-03-05T02:54:12.703Z,90
2019-03-05T02:55:15.827Z,90
2019-03-05T02:56:18.026Z,90
2019-03-05T02:57:20.819Z,90
2019-03-05T02:58:23.550Z,90
2019-03-05T02:59:26.104Z,91
2019-03-05T03:00:28.544Z,91
2019-03-05T03:01:31.065Z,91
2019-03-05T03:02:33.173Z,91
2019-03-05T03:03:35.636Z,91
2019-03-05T03:04:38.150Z,91
2019-03-05T03:05:40.283Z,91
2019-03-05T03:06:42.849Z,91
2019-03-05T03:07:45.307Z,92
2019-03-05T03:08:48.174Z,92
2019-03-05T03:09:50.315Z,92
2019-03-05T03:10:52.853Z,92
2019-03-05T03:11:54.972Z,93
2019-03-05T03:12:57.440Z,93
2019-03-05T03:13:59.573Z,93
2019-03-05T03:15:01.721Z,94
2019-03-05T03:16:03.868Z,94
2019-03-05T03:17:06.303Z,94
2019-03-05T03:18:08.479Z,94
2019-03-05T03:19:10.609Z,94
2019-03-05T03:20:13.062Z,95
2019-03-05T03:21:15.199Z,95
2019-03-05T03:22:17.917Z,96
2019-03-05T03:23:20.531Z,97
2019-03-05T03:24:22.943Z,97
2019-03-05T03:25:25.352Z,98
2019-03-05T03:26:27.479Z,98
2019-03-05T03:27:29.875Z,99
2019-03-05T03:28:32.304Z,99
2019-03-05T03:29:35.108Z,99
2019-03-05T03:30:37.266Z,99
2019-03-05T03:31:40.045Z,99
2019-03-05T03:32:43.287Z,99
2019-03-05T03:33:46.105Z,99
2019-03-05T03:34:48.860Z,99
2019-03-05T03:35:51.013Z,99
2019-03-05T03:36:53.427Z,99
2019-03-05T03:37:55.945Z,98
2019-03-05T03:38:58.383Z,98
2019-03-05T03:40:01.537Z,99
2019-03-05T03:41:03.714Z,99
2019-03-05T03:42:06.127Z,99
2019-03-05T03:43:08.569Z,99
2019-03-05T03:44:10.724Z,99
2019-03-05T03:45:12.844Z,99
2019-03-05T03:46:15.332Z,99
2019-03-05T03:47:17.486Z,100
2019-03-05T03:48:19.646Z,100
2019-03-05T03:49:22.043Z,100
2019-03-05T03:50:24.187Z,100
2019-03-05T03:51:26.318Z,100
2019-03-05T03:52:28.742Z,100
2019-03-05T03:53:31.171Z,100
2019-03-05T03:54:33.324Z,100
2019-03-05T03:55:36.352Z,100
2019-03-05T03:56:38.819Z,100
2019-03-05T03:57:40.942Z,100
2019-03-05T03:58:43.368Z,100
2019-03-05T03:59:46.070Z,100
2019-03-05T04:00:48.178Z,100
2019-03-05T04:01:50.370Z,100
2019-03-05T04:02:52.523Z,100
2019-03-05T04:03:54.688Z,100
2019-03-05T04:04:57.076Z,100
2019-03-05T04:05:59.219Z,100
2019-03-05T04:07:01.415Z,100
2019-03-05T04:08:03.946Z,100
2019-03-05T04:09:06.489Z,100
2019-03-05T04:10:09.336Z,100
2019-03-05T04:11:11.481Z,100
2019-03-05T04:12:14.011Z,100
2019-03-05T04:13:16.813Z,100
2019-03-05T04:14:18.989Z,100
2019-03-05T04:15:22.196Z,100
2019-03-05T04:16:25.184Z,100
2019-03-05T04:17:27.337Z,100
2019-03-05T04:18:30.239Z,100
2019-03-05T04:19:32.406Z,100
2019-03-05T04:20:34.559Z,100
2019-03-05T04:21:36.766Z,100
2019-03-05T04:22:39.560Z,100
2019-03-05T04:23:42.376Z,100
2019-03-05T04:24:44.494Z,100
2019-03-05T04:25:47.178Z,100
2019-03-05T04:26:49.309Z,100
2019-03-05T04:27:51.414Z,100
2019-03-05T04:28:53.543Z,100
2019-03-05T04:29:55.672Z,100
2019-03-05T04:30:57.796Z,100
2019-03-05T04:31:59.919Z,100
2019-03-05T04:33:03.013Z,100
2019-03-05T04:34:05.863Z,100
2019-03-05T04:35:08.382Z,100
2019-03-05T04:36:10.498Z,100
2019-03-05T04:37:12.603Z,100
2019-03-05T04:38:14.726Z,100
2019-03-05T04:39:16.886Z,100
2019-03-05T04:40:18.998Z,100
2019-03-05T04:41:21.121Z,100
2019-03-05T04:42:23.253Z,100
2019-03-05T04:43:25.348Z,100
2019-03-05T04:44:27.469Z,100
2019-03-05T04:45:29.973Z,100
2019-03-05T04:46:32.113Z,100
2019-03-05T04:47:34.602Z,100
2019-03-05T04:48:36.731Z,100
2019-03-05T04:49:38.845Z,100
2019-03-05T04:50:40.958Z,100
2019-03-05T04:51:43.088Z,100
2019-03-05T04:52:45.494Z,100
2019-03-05T04:53:47.617Z,100
2019-03-05T04:54:49.730Z,100
2019-03-05T04:55:51.866Z,100
2019-03-05T04:56:53.979Z,100
2019-03-05T04:57:56.110Z,100
2019-03-05T04:58:58.789Z,100
2019-03-05T05:00:01.124Z,100
2019-03-05T05:01:03.242Z,100
2019-03-05T05:02:05.670Z,100
2019-03-05T05:03:08.374Z,100
2019-03-05T05:04:11.454Z,100
2019-03-05T05:05:13.868Z,100
2019-03-05T05:06:15.979Z,100
2019-03-05T05:07:18.494Z,100
2019-03-05T05:08:20.620Z,100
2019-03-05T05:09:22.729Z,100
2019-03-05T05:10:24.846Z,100
2019-03-05T05:11:26.975Z,100
2019-03-05T05:12:29.069Z,100
2019-03-05T05:13:31.212Z,100
2019-03-05T05:14:33.333Z,100
2019-03-05T05:15:36.187Z,100
2019-03-05T05:16:38.325Z,100
2019-03-05T05:17:40.429Z,100
2019-03-05T05:18:43.237Z,100
2019-03-05T05:19:45.343Z,100
2019-03-05T05:20:47.474Z,100
2019-03-05T05:21:49.869Z,100
2019-03-05T05:22:52.040Z,100
2019-03-05T05:23:54.164Z,100
2019-03-05T05:24:56.261Z,100
2019-03-05T05:25:58.382Z,100
2019-03-05T05:27:00.497Z,100
2019-03-05T05:28:02.613Z,100
2019-03-05T05:29:05.014Z,100
2019-03-05T05:30:07.135Z,100
2019-03-05T05:31:09.254Z,100
2019-03-05T05:32:11.850Z,100
2019-03-05T05:33:13.950Z,100
2019-03-05T05:34:16.674Z,100
2019-03-05T05:35:18.802Z,100
2019-03-05T05:36:20.949Z,100
2019-03-05T05:37:23.368Z,100
2019-03-05T05:38:25.499Z,100
2019-03-05T05:39:27.616Z,100
2019-03-05T05:40:29.747Z,100
2019-03-05T05:41:32.155Z,100
2019-03-05T05:42:34.563Z,100
2019-03-05T05:43:36.680Z,100
2019-03-05T05:44:38.801Z,100
2019-03-05T05:45:41.185Z,100
2019-03-05T05:46:43.320Z,100
2019-03-05T05:47:45.439Z,100
2019-03-05T05:48:47.549Z,100
2019-03-05T05:49:49.674Z,100
2019-03-05T05:50:52.065Z,100
2019-03-05T05:51:54.182Z,100
2019-03-05T05:52:56.564Z,100
2019-03-05T05:53:58.714Z,100
2019-03-05T05:55:01.346Z,100
2019-03-05T05:56:03.577Z,100
2019-03-05T05:57:05.705Z,100
2019-03-05T05:58:07.817Z,99
2019-03-05T05:59:09.947Z,99
2019-03-05T06:00:12.079Z,99
2019-03-05T06:01:14.204Z,99
2019-03-05T06:02:16.309Z,99
2019-03-05T06:03:18.452Z,99
2019-03-05T06:04:20.857Z,98
2019-03-05T06:05:22.976Z,99
2019-03-05T06:06:25.109Z,98
2019-03-05T06:07:27.226Z,98
2019-03-05T06:08:29.738Z,98
2019-03-05T06:09:32.133Z,99
2019-03-05T06:10:34.251Z,99
2019-03-05T06:11:36.387Z,99
2019-03-05T06:12:38.497Z,99
2019-03-05T06:13:40.630Z,98
2019-03-05T06:14:42.751Z,99
2019-03-05T06:15:44.869Z,98
2019-03-05T06:16:47.270Z,98
2019-03-05T06:17:49.697Z,98
2019-03-05T06:18:51.805Z,98
2019-03-05T06:19:53.926Z,98
2019-03-05T06:20:56.057Z,98
2019-03-05T06:21:58.171Z,98
2019-03-05T06:23:00.310Z,98
2019-03-05T06:24:02.429Z,98
2019-03-05T06:25:05.715Z,99
2019-03-05T06:26:10.371Z,99
2019-03-05T06:27:12.525Z,98
2019-03-05T06:28:14.933Z,98
2019-03-05T06:29:17.058Z,99
2019-03-05T06:30:19.185Z,98
2019-03-05T06:31:21.333Z,98
2019-03-05T06:32:23.462Z,98
2019-03-05T06:33:25.583Z,99
2019-03-05T06:34:27.711Z,99
2019-03-05T06:35:30.507Z,99
2019-03-05T06:36:32.636Z,99
2019-03-05T06:37:35.067Z,100
2019-03-05T06:38:37.569Z,100
2019-03-05T06:39:39.705Z,100
2019-03-05T06:40:41.894Z,100
2019-03-05T06:41:44.014Z,100
2019-03-05T06:42:46.137Z,100
2019-03-05T06:43:48.535Z,100
2019-03-05T06:44:51.042Z,100
2019-03-05T06:45:53.238Z,100
2019-03-05T06:46:55.372Z,100
2019-03-05T06:47:57.494Z,100
2019-03-05T06:48:59.647Z,100
2019-03-05T06:50:01.780Z,100
2019-03-05T06:51:03.992Z,99
2019-03-05T06:52:06.099Z,99
2019-03-05T06:53:08.223Z,99
2019-03-05T06:54:10.367Z,99
2019-03-05T06:55:12.521Z,100
2019-03-05T06:56:14.651Z,100
2019-03-05T06:57:16.792Z,99
2019-03-05T06:58:18.914Z,100
2019-03-05T06:59:21.012Z,99
2019-03-05T07:00:23.139Z,99
2019-03-05T07:01:25.538Z,99
2019-03-05T07:02:27.657Z,98
2019-03-05T07:03:29.779Z,99
2019-03-05T07:04:31.895Z,98
2019-03-05T07:05:34.027Z,98
2019-03-05T07:06:36.155Z,98
2019-03-05T07:07:38.285Z,98
2019-03-05T07:08:40.390Z,98
2019-03-05T07:09:42.817Z,98
2019-03-05T07:10:45.309Z,97
2019-03-05T07:11:47.432Z,98
2019-03-05T07:12:49.560Z,98
2019-03-05T07:13:51.663Z,98
2019-03-05T07:14:53.772Z,97
2019-03-05T07:15:55.942Z,97
2019-03-05T07:16:58.050Z,97
2019-03-05T07:18:00.154Z,97
2019-03-05T07:19:02.575Z,97
2019-03-05T07:20:04.753Z,97
2019-03-05T07:21:07.468Z,97
2019-03-05T07:22:09.602Z,97
2019-03-05T07:23:12.010Z,98
2019-03-05T07:24:14.134Z,99
2019-03-05T07:25:16.268Z,100
2019-03-05T07:26:18.439Z,100
2019-03-05T07:27:20.555Z,100
2019-03-05T07:28:23.561Z,100
2019-03-05T07:29:25.676Z,100
2019-03-05T07:30:27.809Z,100
2019-03-05T07:31:29.922Z,100
2019-03-05T07:32:32.057Z,100
2019-03-05T07:33:34.836Z,100
2019-03-05T07:34:36.962Z,100
2019-03-05T07:35:39.075Z,100
2019-03-05T07:36:41.179Z,100
2019-03-05T07:37:43.321Z,100
2019-03-05T07:38:45.426Z,100
2019-03-05T07:39:47.540Z,100
2019-03-05T07:40:50.021Z,100
2019-03-05T07:41:52.167Z,100
2019-03-05T07:42:54.271Z,100
2019-03-05T07:43:56.432Z,100
2019-03-05T07:44:58.942Z,100
2019-03-05T07:46:01.050Z,100
2019-03-05T07:47:03.179Z,99
2019-03-05T07:48:06.151Z,97
2019-03-05T07:49:08.262Z,97
2019-03-05T07:50:10.394Z,97
2019-03-05T07:51:12.537Z,97
2019-03-05T07:52:14.679Z,97
2019-03-05T07:53:17.202Z,96
2019-03-05T07:54:19.395Z,96
2019-03-05T07:55:21.517Z,95
2019-03-05T07:56:23.632Z,95
2019-03-05T07:57:25.752Z,95
2019-03-05T07:58:27.849Z,95
2019-03-05T07:59:30.263Z,95
2019-03-05T08:00:32.395Z,95
2019-03-05T08:01:34.519Z,96
2019-03-05T08:02:36.630Z,95
2019-03-05T08:03:38.749Z,95
2019-03-05T08:04:40.874Z,95
2019-03-05T08:05:43.004Z,94
2019-03-05T08:06:45.462Z,94
2019-03-05T08:07:47.592Z,94
2019-03-05T08:08:49.708Z,94
2019-03-05T08:09:51.814Z,93
2019-03-05T08:10:54.344Z,94
2019-03-05T08:11:56.450Z,93
2019-03-05T08:12:58.585Z,93
2019-03-05T08:14:01.073Z,93
2019-03-05T08:15:03.522Z,93
2019-03-05T08:16:05.936Z,92
2019-03-05T08:17:08.153Z,92
2019-03-05T08:18:10.674Z,93
2019-03-05T08:19:12.779Z,93
2019-03-05T08:20:14.912Z,93
2019-03-05T08:21:17.318Z,93
2019-03-05T08:22:19.430Z,93
2019-03-05T08:23:21.552Z,92
2019-03-05T08:24:23.681Z,92
2019-03-05T08:25:25.794Z,92
2019-03-05T08:26:27.932Z,92
2019-03-05T08:27:30.067Z,92
2019-03-05T08:28:32.452Z,92
2019-03-05T08:29:34.568Z,92
2019-03-05T08:30:36.689Z,91
2019-03-05T08:31:39.184Z,91
2019-03-05T08:32:41.594Z,92
2019-03-05T08:33:43.723Z,92
2019-03-05T08:34:45.834Z,90
2019-03-05T08:35:47.981Z,90
2019-03-05T08:36:50.131Z,90
2019-03-05T08:37:52.261Z,90
2019-03-05T08:38:54.368Z,90
2019-03-05T08:39:56.492Z,89
2019-03-05T08:40:58.626Z,88
2019-03-05T08:42:00.741Z,87
2019-03-05T08:43:02.850Z,87
2019-03-05T08:44:04.985Z,87
2019-03-05T08:45:07.122Z,86
2019-03-05T08:46:09.243Z,85
2019-03-05T08:47:11.360Z,85
2019-03-05T08:48:13.771Z,85
2019-03-05T08:49:18.779Z,85
2019-03-05T08:50:21.195Z,84
2019-03-05T08:51:23.344Z,85
2019-03-05T08:52:25.450Z,83
2019-03-05T08:53:27.579Z,83
2019-03-05T08:54:29.722Z,83
2019-03-05T08:55:31.836Z,84
2019-03-05T08:56:34.547Z,84
2019-03-05T08:57:36.672Z,84
2019-03-05T08:58:38.789Z,84
2019-03-05T08:59:40.917Z,84
2019-03-05T09:00:43.046Z,83
2019-03-05T09:01:45.153Z,82
2019-03-05T09:02:50.187Z,83
2019-03-05T09:03:52.340Z,83
2019-03-05T09:04:54.832Z,83
2019-03-05T09:05:56.965Z,83
2019-03-05T09:06:59.092Z,81
2019-03-05T09:08:01.208Z,82
2019-03-05T09:09:03.349Z,82
2019-03-05T09:10:05.472Z,82
2019-03-05T09:11:08.270Z,81
2019-03-05T09:12:10.382Z,82
2019-03-05T09:13:13.129Z,81
2019-03-05T09:14:15.248Z,82
2019-03-05T09:15:17.401Z,82
2019-03-05T09:16:19.548Z,82
2019-03-05T09:17:21.737Z,80
2019-03-05T09:18:23.986Z,81
2019-03-05T09:19:26.102Z,83
2019-03-05T09:20:28.544Z,82
2019-03-05T09:21:31.015Z,82
2019-03-05T09:22:33.931Z,81
2019-03-05T09:23:36.183Z,82
2019-03-05T09:24:38.334Z,82
2019-03-05T09:25:40.430Z,83
2019-03-05T09:26:52.771Z,82
2019-03-05T09:27:56.294Z,82
2019-03-05T09:28:58.408Z,82
2019-03-05T09:30:00.696Z,81
2019-03-05T09:31:03.229Z,80
2019-03-05T09:32:05.387Z,80
2019-03-05T09:33:07.876Z,80
2019-03-05T09:34:10.313Z,80
2019-03-05T09:35:12.484Z,81
2019-03-05T09:36:14.879Z,80
2019-03-05T09:37:17.707Z,78
2019-03-05T09:38:20.108Z,76
2019-03-05T09:39:22.232Z,77
2019-03-05T09:40:24.644Z,77
2019-03-05T09:41:26.758Z,76
2019-03-05T09:42:40.771Z,76
2019-03-05T09:43:42.893Z,77
2019-03-05T09:44:45.018Z,77
2019-03-05T09:45:47.133Z,76
2019-03-05T09:46:49.280Z,76
2019-03-05T09:47:51.691Z,78
2019-03-05T09:48:54.099Z,78
2019-03-05T09:49:56.232Z,79
2019-03-05T09:50:58.334Z,79
2019-03-05T09:52:00.472Z,79
2019-03-05T09:53:02.601Z,80
2019-03-05T09:54:05.018Z,79
2019-03-05T09:55:07.132Z,79
2019-03-05T09:56:09.270Z,80
2019-03-05T09:57:11.392Z,79
2019-03-05T09:58:13.518Z,79
2019-03-05T09:59:15.659Z,78
2019-03-05T10:00:18.074Z,78
2019-03-05T10:01:20.195Z,78
2019-03-05T10:02:22.323Z,79
2019-03-05T10:03:24.449Z,79
2019-03-05T10:04:26.890Z,78
2019-03-05T10:05:29.036Z,78
2019-03-05T10:06:31.204Z,79
2019-03-05T10:07:33.608Z,79
2019-03-05T10:08:35.809Z,79
2019-03-05T10:09:38.343Z,79
2019-03-05T10:10:40.460Z,79
2019-03-05T10:11:42.595Z,79
2019-03-05T10:12:44.706Z,79
2019-03-05T10:13:46.824Z,79
2019-03-05T10:14:49.045Z,79
2019-03-05T10:15:53.869Z,80
2019-03-05T10:16:56.001Z,80
2019-03-05T10:17:58.128Z,79
2019-03-05T10:19:00.275Z,80
2019-03-05T10:20:02.831Z,80
2019-03-05T10:21:04.961Z,79
2019-03-05T10:22:07.389Z,79
2019-03-05T10:23:09.522Z,79
2019-03-05T10:24:12.045Z,80
2019-03-05T10:25:14.176Z,79
2019-03-05T10:26:19.508Z,79
2019-03-05T10:27:21.663Z,79
2019-03-05T10:28:23.814Z,79
2019-03-05T10:29:25.976Z,80
2019-03-05T10:30:28.131Z,79
2019-03-05T10:31:30.265Z,79
2019-03-05T10:32:34.997Z,79
2019-03-05T10:33:37.148Z,79
2019-03-05T10:34:39.682Z,79
2019-03-05T10:35:41.879Z,79
2019-03-05T10:36:44.006Z,79
2019-03-05T10:37:46.402Z,78
2019-03-05T10:38:58.821Z,78
2019-03-05T10:40:00.934Z,78
2019-03-05T10:41:03.356Z,80
2019-03-05T10:42:05.486Z,79
2019-03-05T10:43:09.928Z,78
2019-03-05T10:44:12.042Z,79
2019-03-05T10:45:14.187Z,78
2019-03-05T10:46:16.580Z,77
2019-03-05T10:47:18.689Z,78
2019-03-05T10:48:20.823Z,77
2019-03-05T10:49:22.930Z,78
2019-03-05T10:50:25.464Z,78
2019-03-05T10:51:27.585Z,78
2019-03-05T10:52:29.734Z,78
2019-03-05T10:53:32.131Z,78
2019-03-05T10:54:34.287Z,78
2019-03-05T10:55:36.709Z,79
2019-03-05T10:56:38.818Z,78
2019-03-05T10:57:41.263Z,77
2019-03-05T10:58:46.113Z,77
2019-03-05T10:59:48.525Z,78
2019-03-05T11:00:50.648Z,78
2019-03-05T11:01:52.791Z,78
2019-03-05T11:02:54.932Z,77
2019-03-05T11:03:57.058Z,78
2019-03-05T11:04:59.237Z,78
2019-03-05T11:06:01.775Z,78
2019-03-05T11:07:03.906Z,78
2019-03-05T11:08:06.037Z,78
2019-03-05T11:09:08.427Z,79
2019-03-05T11:10:10.554Z,79
2019-03-05T11:11:15.389Z,79
2019-03-05T11:12:17.905Z,79
2019-03-05T11:13:20.040Z,78
2019-03-05T11:14:22.242Z,78
2019-03-05T11:15:24.365Z,77
2019-03-05T11:16:32.010Z,77
2019-03-05T11:17:34.542Z,77
2019-03-05T11:18:36.759Z,77
2019-03-05T11:19:38.890Z,77
2019-03-05T11:20:41.033Z,78
2019-03-05T11:21:44.022Z,79
2019-03-05T11:22:46.210Z,80
2019-03-05T11:23:48.429Z,80
2019-03-05T11:24:50.562Z,81
2019-03-05T11:25:53.091Z,80
2019-03-05T11:26:55.228Z,80
2019-03-05T11:27:57.340Z,81
2019-03-05T11:28:59.475Z,83
2019-03-05T11:30:01.620Z,81
2019-03-05T11:31:04.396Z,81
2019-03-05T11:32:06.536Z,81
2019-03-05T11:33:08.950Z,82
2019-03-05T11:34:13.849Z,83
2019-03-05T11:35:15.966Z,83
2019-03-05T11:36:18.156Z,83
2019-03-05T11:37:20.262Z,83
2019-03-05T11:38:22.374Z,81
2019-03-05T11:39:24.508Z,81
2019-03-05T11:40:26.615Z,81
2019-03-05T11:41:29.450Z,83
2019-03-05T11:42:31.582Z,82
2019-03-05T11:43:33.703Z,83
2019-03-05T11:44:35.820Z,83
2019-03-05T11:45:38.265Z,84
2019-03-05T11:46:40.662Z,84
2019-03-05T11:47:42.781Z,84
2019-03-05T11:48:44.938Z,84
2019-03-05T11:49:47.055Z,85
2019-03-05T11:50:52.037Z,85
2019-03-05T11:51:54.144Z,85
2019-03-05T11:52:56.266Z,86
2019-03-05T11:53:58.392Z,86
2019-03-05T11:55:00.795Z,87
2019-03-05T11:56:02.941Z,87
2019-03-05T11:57:05.072Z,86
2019-03-05T11:58:07.649Z,86
2019-03-05T11:59:09.759Z,86
2019-03-05T12:00:11.933Z,85
2019-03-05T12:01:14.053Z,84
2019-03-05T12:02:22.846Z,84
2019-03-05T12:03:24.987Z,83
2019-03-05T12:04:27.133Z,82
2019-03-05T12:05:29.268Z,83
2019-03-05T12:06:31.393Z,83
2019-03-05T12:07:33.521Z,83
2019-03-05T12:08:35.639Z,83
2019-03-05T12:09:38.061Z,83
2019-03-05T12:10:40.178Z,86
2019-03-05T12:11:42.290Z,84
2019-03-05T12:12:44.439Z,84
2019-03-05T12:13:46.552Z,84
2019-03-05T12:14:48.675Z,85
2019-03-05T12:15:50.816Z,85
2019-03-05T12:16:52.945Z,85
2019-03-05T12:17:55.052Z,85
2019-03-05T12:18:57.189Z,85
2019-03-05T12:19:59.304Z,84
2019-03-05T12:21:01.426Z,86
2019-03-05T12:22:03.827Z,85
2019-03-05T12:23:12.364Z,85
2019-03-05T12:24:14.478Z,86
2019-03-05T12:25:16.624Z,85
2019-03-05T12:26:18.741Z,86
2019-03-05T12:27:20.856Z,87
2019-03-05T12:28:22.985Z,87
2019-03-05T12:29:25.089Z,87
2019-03-05T12:30:27.245Z,87
2019-03-05T12:31:29.674Z,88
2019-03-05T12:32:31.805Z,88
2019-03-05T12:33:33.913Z,86
2019-03-05T12:34:36.789Z,86
2019-03-05T12:35:38.931Z,85
2019-03-05T12:36:41.349Z,85
2019-03-05T12:37:43.770Z,84
2019-03-05T12:38:47.296Z,86
2019-03-05T12:39:49.701Z,85
2019-03-05T12:40:51.824Z,86
2019-03-05T12:41:54.248Z,86
2019-03-05T12:42:56.355Z,84
2019-03-05T12:43:58.764Z,84
2019-03-05T12:45:01.049Z,85
2019-03-05T12:46:03.156Z,86
2019-03-05T12:47:05.285Z,86
2019-03-05T12:48:07.701Z,86
2019-03-05T12:49:09.818Z,87
2019-03-05T12:50:11.960Z,86
2019-03-05T12:51:14.098Z,86
2019-03-05T12:52:16.214Z,86
2019-03-05T12:53:18.353Z,86
2019-03-05T12:54:20.482Z,87
2019-03-05T12:55:22.599Z,87
2019-03-05T12:56:25.610Z,88
2019-03-05T12:57:27.737Z,87
2019-03-05T12:58:29.841Z,87
2019-03-05T12:59:31.963Z,88
2019-03-05T13:00:34.375Z,88
2019-03-05T13:01:36.495Z,88
2019-03-05T13:02:38.641Z,88
2019-03-05T13:03:40.764Z,86
2019-03-05T13:04:43.271Z,87
2019-03-05T13:05:45.374Z,86
2019-03-05T13:06:47.496Z,86
2019-03-05T13:07:58.266Z,86
2019-03-05T13:09:00.391Z,85
2019-03-05T13:10:03.539Z,86
2019-03-05T13:11:09.277Z,87
2019-03-05T13:12:16.252Z,87
2019-03-05T13:13:18.656Z,86
2019-03-05T13:14:20.770Z,85
2019-03-05T13:15:22.909Z,85
2019-03-05T13:16:25.064Z,86
2019-03-05T13:17:27.196Z,86
2019-03-05T13:18:33.111Z,86
2019-03-05T13:19:35.222Z,86
2019-03-05T13:20:37.366Z,86
2019-03-05T13:21:39.777Z,86
2019-03-05T13:22:46.017Z,86
2019-03-05T13:23:48.452Z,86
2019-03-05T13:24:53.805Z,87
2019-03-05T13:25:55.920Z,87
2019-03-05T13:26:58.053Z,87
2019-03-05T13:28:04.918Z,87
2019-03-05T13:29:07.033Z,87
2019-03-05T13:30:11.682Z,87
2019-03-05T13:31:14.098Z,87
2019-03-05T13:32:22.327Z,87
2019-03-05T13:33:24.444Z,88
2019-03-05T13:34:26.956Z,87
2019-03-05T13:35:32.917Z,88
2019-03-05T13:36:35.380Z,87
2019-03-05T13:37:37.526Z,87
2019-03-05T13:38:46.859Z,87
2019-03-05T13:39:48.966Z,87
2019-03-05T13:40:51.101Z,88
2019-03-05T13:41:55.697Z,88
2019-03-05T13:42:57.816Z,88
2019-03-05T13:43:59.947Z,88
2019-03-05T13:45:10.881Z,89
2019-03-05T13:46:12.999Z,88
2019-03-05T13:47:15.158Z,89
2019-03-05T13:48:24.508Z,88
2019-03-05T13:49:26.650Z,88
2019-03-05T13:50:28.758Z,87
2019-03-05T13:51:31.191Z,87
2019-03-05T13:52:37.862Z,86
2019-03-05T13:53:40.611Z,86
2019-03-05T13:54:50.201Z,86
2019-03-05T13:55:52.323Z,85
2019-03-05T13:56:54.717Z,85
2019-03-05T13:57:56.969Z,85
2019-03-05T13:58:59.106Z,85
2019-03-05T14:00:01.229Z,86
2019-03-05T14:01:03.406Z,86
2019-03-05T14:02:05.918Z,85
2019-03-05T14:03:08.021Z,86
2019-03-05T14:04:10.145Z,86
2019-03-05T14:05:12.278Z,87
2019-03-05T14:06:14.407Z,87
2019-03-05T14:07:16.589Z,87
2019-03-05T14:08:18.728Z,88
2019-03-05T14:09:21.354Z,89
2019-03-05T14:10:26.598Z,90
2019-03-05T14:11:28.794Z,90
2019-03-05T14:12:31.345Z,91
2019-03-05T14:13:34.189Z,94
2019-03-05T14:14:36.424Z,93
2019-03-05T14:15:38.650Z,95
2019-03-05T14:16:40.919Z,98
2019-03-05T14:17:43.180Z,99
2019-03-05T14:18:45.438Z,100
2019-03-05T14:19:47.602Z,100
2019-03-05T14:20:50.445Z,100
2019-03-05T14:21:53.337Z,100
2019-03-05T14:22:55.517Z,100
2019-03-05T14:23:57.809Z,100
2019-03-05T14:25:04.187Z,100
2019-03-05T14:26:06.418Z,100
2019-03-05T14:27:08.965Z,100
2019-03-05T14:28:11.226Z,100
2019-03-05T14:29:13.790Z,100
2019-03-05T14:30:16.492Z,100
2019-03-05T14:31:18.834Z,100
2019-03-05T14:32:21.916Z,100
2019-03-05T14:33:24.500Z,100
2019-03-05T14:34:30.113Z,100
2019-03-05T14:35:32.636Z,100
2019-03-05T14:36:34.783Z,100
2019-03-05T14:37:37.303Z,100
2019-03-05T14:38:39.497Z,100
2019-03-05T14:39:41.993Z,100
2019-03-05T14:40:44.619Z,100
2019-03-05T14:41:46.851Z,100
2019-03-05T14:42:49.015Z,100
2019-03-05T14:43:51.347Z,100